sensor_id;sensor_type;location;lat;lon;timestamp;P1;durP1;ratioP1;P2;durP2;ratioP2
40621;SDS011;26324;52.040;11.528;2024-03-07T00:00:43;6.32;;;4.53;;
40621;SDS011;26324;52.040;11.528;2024-03-07T00:03:11;11.73;;;4.75;;
40621;SDS011;26324;52.040;11.528;2024-03-07T00:05:38;7.60;;;4.13;;
40621;SDS011;26324;52.040;11.528;2024-03-07T00:08:06;9.25;;;4.25;;
40621;SDS011;26324;52.040;11.528;2024-03-07T00:10:34;9.98;;;3.85;;
40621;SDS011;26324;52.040;11.528;2024-03-07T00:13:03;12.95;;;4.10;;
40621;SDS011;26324;52.040;11.528;2024-03-07T00:15:30;8.63;;;4.05;;
40621;SDS011;26324;52.040;11.528;2024-03-07T00:17:58;9.38;;;3.15;;
40621;SDS011;26324;52.040;11.528;2024-03-07T00:20:27;13.15;;;3.90;;
40621;SDS011;26324;52.040;11.528;2024-03-07T00:22:55;11.40;;;4.70;;
40621;SDS011;26324;52.040;11.528;2024-03-07T00:25:22;10.82;;;5.57;;
40621;SDS011;26324;52.040;11.528;2024-03-07T00:27:49;8.10;;;3.97;;
40621;SDS011;26324;52.040;11.528;2024-03-07T00:30:20;6.55;;;3.75;;
40621;SDS011;26324;52.040;11.528;2024-03-07T00:32:47;6.40;;;3.40;;
40621;SDS011;26324;52.040;11.528;2024-03-07T00:35:16;10.63;;;5.00;;
40621;SDS011;26324;52.040;11.528;2024-03-07T00:37:43;9.13;;;4.30;;
40621;SDS011;26324;52.040;11.528;2024-03-07T00:40:12;8.65;;;4.65;;
40621;SDS011;26324;52.040;11.528;2024-03-07T00:42:40;10.85;;;5.35;;
40621;SDS011;26324;52.040;11.528;2024-03-07T00:45:07;12.20;;;4.88;;
40621;SDS011;26324;52.040;11.528;2024-03-07T00:47:34;9.25;;;3.85;;
40621;SDS011;26324;52.040;11.528;2024-03-07T00:50:02;10.13;;;5.15;;
40621;SDS011;26324;52.040;11.528;2024-03-07T00:52:29;9.52;;;5.22;;
40621;SDS011;26324;52.040;11.528;2024-03-07T00:54:57;13.45;;;4.25;;
40621;SDS011;26324;52.040;11.528;2024-03-07T00:57:24;8.05;;;3.95;;
40621;SDS011;26324;52.040;11.528;2024-03-07T00:59:51;8.63;;;3.70;;
40621;SDS011;26324;52.040;11.528;2024-03-07T01:02:19;8.85;;;3.58;;
40621;SDS011;26324;52.040;11.528;2024-03-07T01:04:47;7.95;;;3.78;;
40621;SDS011;26324;52.040;11.528;2024-03-07T01:07:15;7.32;;;3.53;;
40621;SDS011;26324;52.040;11.528;2024-03-07T01:09:42;14.40;;;4.53;;
40621;SDS011;26324;52.040;11.528;2024-03-07T01:12:09;8.00;;;4.07;;
40621;SDS011;26324;52.040;11.528;2024-03-07T01:14:38;8.60;;;3.55;;
40621;SDS011;26324;52.040;11.528;2024-03-07T01:17:05;9.02;;;4.07;;
40621;SDS011;26324;52.040;11.528;2024-03-07T01:19:35;8.77;;;3.97;;
40621;SDS011;26324;52.040;11.528;2024-03-07T01:22:05;8.20;;;4.20;;
40621;SDS011;26324;52.040;11.528;2024-03-07T01:24:35;7.05;;;3.38;;
40621;SDS011;26324;52.040;11.528;2024-03-07T01:27:05;7.18;;;3.83;;
40621;SDS011;26324;52.040;11.528;2024-03-07T01:29:33;6.68;;;2.78;;
40621;SDS011;26324;52.040;11.528;2024-03-07T01:32:01;10.63;;;4.32;;
40621;SDS011;26324;52.040;11.528;2024-03-07T01:34:30;11.43;;;4.35;;
40621;SDS011;26324;52.040;11.528;2024-03-07T01:36:57;8.00;;;3.72;;
40621;SDS011;26324;52.040;11.528;2024-03-07T01:39:24;6.95;;;3.08;;
40621;SDS011;26324;52.040;11.528;2024-03-07T01:41:52;8.52;;;4.00;;
40621;SDS011;26324;52.040;11.528;2024-03-07T01:44:19;6.63;;;3.95;;
40621;SDS011;26324;52.040;11.528;2024-03-07T01:46:46;8.05;;;3.63;;
40621;SDS011;26324;52.040;11.528;2024-03-07T01:49:17;8.98;;;4.60;;
40621;SDS011;26324;52.040;11.528;2024-03-07T01:51:45;13.20;;;4.15;;
40621;SDS011;26324;52.040;11.528;2024-03-07T01:54:13;10.68;;;4.63;;
40621;SDS011;26324;52.040;11.528;2024-03-07T01:56:40;8.45;;;3.97;;
40621;SDS011;26324;52.040;11.528;2024-03-07T01:59:08;9.70;;;4.43;;
40621;SDS011;26324;52.040;11.528;2024-03-07T02:01:36;7.97;;;3.92;;
40621;SDS011;26324;52.040;11.528;2024-03-07T02:04:04;6.78;;;2.85;;
40621;SDS011;26324;52.040;11.528;2024-03-07T02:06:32;11.45;;;4.38;;
40621;SDS011;26324;52.040;11.528;2024-03-07T02:09:00;11.38;;;5.13;;
40621;SDS011;26324;52.040;11.528;2024-03-07T02:11:29;10.80;;;4.22;;
40621;SDS011;26324;52.040;11.528;2024-03-07T02:13:57;11.30;;;4.03;;
40621;SDS011;26324;52.040;11.528;2024-03-07T02:16:24;15.98;;;4.95;;
40621;SDS011;26324;52.040;11.528;2024-03-07T02:18:52;10.85;;;4.30;;
40621;SDS011;26324;52.040;11.528;2024-03-07T02:21:19;8.27;;;4.53;;
40621;SDS011;26324;52.040;11.528;2024-03-07T02:23:46;8.15;;;4.03;;
40621;SDS011;26324;52.040;11.528;2024-03-07T02:26:14;9.00;;;3.88;;
40621;SDS011;26324;52.040;11.528;2024-03-07T02:28:41;12.80;;;4.47;;
40621;SDS011;26324;52.040;11.528;2024-03-07T02:31:08;12.57;;;4.57;;
40621;SDS011;26324;52.040;11.528;2024-03-07T02:33:35;10.45;;;4.53;;
40621;SDS011;26324;52.040;11.528;2024-03-07T02:36:03;10.95;;;4.63;;
40621;SDS011;26324;52.040;11.528;2024-03-07T02:38:30;8.90;;;3.83;;
40621;SDS011;26324;52.040;11.528;2024-03-07T02:40:58;7.13;;;3.22;;
40621;SDS011;26324;52.040;11.528;2024-03-07T02:43:26;12.18;;;5.80;;
40621;SDS011;26324;52.040;11.528;2024-03-07T02:45:53;12.45;;;4.20;;
40621;SDS011;26324;52.040;11.528;2024-03-07T02:48:22;19.30;;;6.07;;
40621;SDS011;26324;52.040;11.528;2024-03-07T02:50:49;11.18;;;4.45;;
40621;SDS011;26324;52.040;11.528;2024-03-07T02:53:17;11.18;;;5.07;;
40621;SDS011;26324;52.040;11.528;2024-03-07T02:55:45;9.75;;;4.07;;
40621;SDS011;26324;52.040;11.528;2024-03-07T02:58:13;12.55;;;4.63;;
40621;SDS011;26324;52.040;11.528;2024-03-07T03:00:40;9.57;;;5.55;;
40621;SDS011;26324;52.040;11.528;2024-03-07T03:03:08;14.35;;;6.13;;
40621;SDS011;26324;52.040;11.528;2024-03-07T03:05:35;16.50;;;5.47;;
40621;SDS011;26324;52.040;11.528;2024-03-07T03:08:02;14.38;;;5.68;;
40621;SDS011;26324;52.040;11.528;2024-03-07T03:10:33;17.48;;;5.22;;
40621;SDS011;26324;52.040;11.528;2024-03-07T03:13:01;13.70;;;6.03;;
40621;SDS011;26324;52.040;11.528;2024-03-07T03:15:29;18.65;;;5.63;;
40621;SDS011;26324;52.040;11.528;2024-03-07T03:17:57;13.75;;;6.00;;
40621;SDS011;26324;52.040;11.528;2024-03-07T03:20:27;13.30;;;5.47;;
40621;SDS011;26324;52.040;11.528;2024-03-07T03:23:02;11.43;;;4.97;;
40621;SDS011;26324;52.040;11.528;2024-03-07T03:25:45;10.52;;;4.82;;
40621;SDS011;26324;52.040;11.528;2024-03-07T03:28:15;20.50;;;5.97;;
40621;SDS011;26324;52.040;11.528;2024-03-07T03:30:47;18.35;;;6.32;;
40621;SDS011;26324;52.040;11.528;2024-03-07T03:33:15;21.20;;;6.15;;
40621;SDS011;26324;52.040;11.528;2024-03-07T03:35:42;13.05;;;5.75;;
40621;SDS011;26324;52.040;11.528;2024-03-07T03:38:10;14.43;;;6.05;;
40621;SDS011;26324;52.040;11.528;2024-03-07T03:40:37;12.38;;;5.75;;
40621;SDS011;26324;52.040;11.528;2024-03-07T03:43:05;11.77;;;5.50;;
40621;SDS011;26324;52.040;11.528;2024-03-07T03:45:32;14.85;;;5.82;;
40621;SDS011;26324;52.040;11.528;2024-03-07T03:48:01;17.25;;;7.07;;
40621;SDS011;26324;52.040;11.528;2024-03-07T03:50:29;16.65;;;5.63;;
40621;SDS011;26324;52.040;11.528;2024-03-07T03:52:57;17.50;;;7.53;;
40621;SDS011;26324;52.040;11.528;2024-03-07T03:55:24;14.23;;;6.30;;
40621;SDS011;26324;52.040;11.528;2024-03-07T03:57:52;17.73;;;7.30;;
40621;SDS011;26324;52.040;11.528;2024-03-07T04:00:20;15.05;;;6.03;;
40621;SDS011;26324;52.040;11.528;2024-03-07T04:02:50;11.38;;;5.03;;
40621;SDS011;26324;52.040;11.528;2024-03-07T04:05:19;17.35;;;5.82;;
40621;SDS011;26324;52.040;11.528;2024-03-07T04:07:47;12.57;;;5.78;;
40621;SDS011;26324;52.040;11.528;2024-03-07T04:10:16;13.15;;;5.53;;
40621;SDS011;26324;52.040;11.528;2024-03-07T04:15:12;21.20;;;7.68;;
40621;SDS011;26324;52.040;11.528;2024-03-07T04:17:43;18.05;;;6.47;;
40621;SDS011;26324;52.040;11.528;2024-03-07T04:20:13;16.73;;;7.32;;
40621;SDS011;26324;52.040;11.528;2024-03-07T04:22:41;19.45;;;7.25;;
40621;SDS011;26324;52.040;11.528;2024-03-07T04:25:08;16.77;;;6.05;;
40621;SDS011;26324;52.040;11.528;2024-03-07T04:27:37;16.55;;;6.00;;
40621;SDS011;26324;52.040;11.528;2024-03-07T04:30:07;31.13;;;8.35;;
40621;SDS011;26324;52.040;11.528;2024-03-07T04:32:36;21.77;;;7.53;;
40621;SDS011;26324;52.040;11.528;2024-03-07T04:35:05;21.15;;;8.82;;
40621;SDS011;26324;52.040;11.528;2024-03-07T04:37:35;19.10;;;7.20;;
40621;SDS011;26324;52.040;11.528;2024-03-07T04:40:05;24.83;;;8.18;;
40621;SDS011;26324;52.040;11.528;2024-03-07T04:42:42;20.88;;;6.45;;
40621;SDS011;26324;52.040;11.528;2024-03-07T04:45:11;13.98;;;6.80;;
40621;SDS011;26324;52.040;11.528;2024-03-07T04:47:40;22.70;;;7.03;;
40621;SDS011;26324;52.040;11.528;2024-03-07T04:50:08;21.85;;;7.78;;
40621;SDS011;26324;52.040;11.528;2024-03-07T04:52:40;24.90;;;8.35;;
40621;SDS011;26324;52.040;11.528;2024-03-07T04:55:08;18.65;;;7.75;;
40621;SDS011;26324;52.040;11.528;2024-03-07T04:57:37;16.55;;;6.80;;
40621;SDS011;26324;52.040;11.528;2024-03-07T05:02:40;20.92;;;7.60;;
40621;SDS011;26324;52.040;11.528;2024-03-07T05:05:09;24.80;;;7.05;;
40621;SDS011;26324;52.040;11.528;2024-03-07T05:07:36;23.10;;;6.53;;
40621;SDS011;26324;52.040;11.528;2024-03-07T05:10:04;21.33;;;8.65;;
40621;SDS011;26324;52.040;11.528;2024-03-07T05:12:33;20.33;;;6.80;;
40621;SDS011;26324;52.040;11.528;2024-03-07T05:15:00;23.05;;;8.63;;
40621;SDS011;26324;52.040;11.528;2024-03-07T05:17:28;20.98;;;8.05;;
40621;SDS011;26324;52.040;11.528;2024-03-07T05:19:55;19.25;;;7.28;;
40621;SDS011;26324;52.040;11.528;2024-03-07T05:22:23;26.23;;;8.02;;
40621;SDS011;26324;52.040;11.528;2024-03-07T05:24:52;19.88;;;8.00;;
40621;SDS011;26324;52.040;11.528;2024-03-07T05:27:20;27.70;;;8.95;;
40621;SDS011;26324;52.040;11.528;2024-03-07T05:29:48;30.98;;;9.25;;
40621;SDS011;26324;52.040;11.528;2024-03-07T05:32:19;27.52;;;8.38;;
40621;SDS011;26324;52.040;11.528;2024-03-07T05:34:51;26.58;;;9.25;;
40621;SDS011;26324;52.040;11.528;2024-03-07T05:37:22;35.67;;;10.50;;
40621;SDS011;26324;52.040;11.528;2024-03-07T05:39:50;26.90;;;8.57;;
40621;SDS011;26324;52.040;11.528;2024-03-07T05:42:19;28.27;;;9.40;;
40621;SDS011;26324;52.040;11.528;2024-03-07T05:44:47;24.13;;;9.95;;
40621;SDS011;26324;52.040;11.528;2024-03-07T05:47:14;24.77;;;7.70;;
40621;SDS011;26324;52.040;11.528;2024-03-07T05:49:43;22.98;;;8.95;;
40621;SDS011;26324;52.040;11.528;2024-03-07T05:52:10;35.88;;;9.82;;
40621;SDS011;26324;52.040;11.528;2024-03-07T05:54:38;29.02;;;7.97;;
40621;SDS011;26324;52.040;11.528;2024-03-07T05:57:05;30.77;;;8.70;;
40621;SDS011;26324;52.040;11.528;2024-03-07T05:59:33;28.33;;;9.57;;
40621;SDS011;26324;52.040;11.528;2024-03-07T06:02:01;23.65;;;8.73;;
40621;SDS011;26324;52.040;11.528;2024-03-07T06:04:28;21.15;;;8.05;;
40621;SDS011;26324;52.040;11.528;2024-03-07T06:06:56;31.63;;;9.75;;
40621;SDS011;26324;52.040;11.528;2024-03-07T06:09:24;31.05;;;7.88;;
40621;SDS011;26324;52.040;11.528;2024-03-07T06:11:53;29.58;;;9.32;;
40621;SDS011;26324;52.040;11.528;2024-03-07T06:14:21;25.48;;;8.35;;
40621;SDS011;26324;52.040;11.528;2024-03-07T06:16:49;27.45;;;8.43;;
40621;SDS011;26324;52.040;11.528;2024-03-07T06:21:46;29.23;;;8.23;;
40621;SDS011;26324;52.040;11.528;2024-03-07T06:24:13;37.90;;;9.52;;
40621;SDS011;26324;52.040;11.528;2024-03-07T06:26:42;22.52;;;6.32;;
40621;SDS011;26324;52.040;11.528;2024-03-07T06:29:27;25.77;;;8.52;;
40621;SDS011;26324;52.040;11.528;2024-03-07T06:31:55;23.58;;;7.72;;
40621;SDS011;26324;52.040;11.528;2024-03-07T06:34:22;29.70;;;10.35;;
40621;SDS011;26324;52.040;11.528;2024-03-07T06:36:50;29.77;;;9.27;;
40621;SDS011;26324;52.040;11.528;2024-03-07T06:39:17;42.67;;;9.27;;
40621;SDS011;26324;52.040;11.528;2024-03-07T06:41:49;29.45;;;9.57;;
40621;SDS011;26324;52.040;11.528;2024-03-07T06:44:16;30.02;;;9.93;;
40621;SDS011;26324;52.040;11.528;2024-03-07T06:46:46;31.98;;;8.95;;
40621;SDS011;26324;52.040;11.528;2024-03-07T06:49:13;32.30;;;8.77;;
40621;SDS011;26324;52.040;11.528;2024-03-07T06:51:40;36.20;;;10.20;;
40621;SDS011;26324;52.040;11.528;2024-03-07T06:54:08;33.58;;;10.23;;
40621;SDS011;26324;52.040;11.528;2024-03-07T06:56:36;31.30;;;9.10;;
40621;SDS011;26324;52.040;11.528;2024-03-07T06:59:03;27.05;;;10.02;;
40621;SDS011;26324;52.040;11.528;2024-03-07T07:01:31;32.22;;;8.32;;
40621;SDS011;26324;52.040;11.528;2024-03-07T07:04:02;40.17;;;10.30;;
40621;SDS011;26324;52.040;11.528;2024-03-07T07:06:31;33.88;;;9.23;;
40621;SDS011;26324;52.040;11.528;2024-03-07T07:08:58;28.88;;;10.10;;
40621;SDS011;26324;52.040;11.528;2024-03-07T07:11:29;25.55;;;10.23;;
40621;SDS011;26324;52.040;11.528;2024-03-07T07:16:53;28.92;;;8.38;;
40621;SDS011;26324;52.040;11.528;2024-03-07T07:19:20;27.38;;;9.32;;
40621;SDS011;26324;52.040;11.528;2024-03-07T07:21:48;28.83;;;9.10;;
40621;SDS011;26324;52.040;11.528;2024-03-07T07:24:20;32.90;;;9.48;;
40621;SDS011;26324;52.040;11.528;2024-03-07T07:26:50;27.05;;;8.60;;
40621;SDS011;26324;52.040;11.528;2024-03-07T07:29:18;28.00;;;9.48;;
40621;SDS011;26324;52.040;11.528;2024-03-07T07:31:45;25.40;;;8.23;;
40621;SDS011;26324;52.040;11.528;2024-03-07T07:34:13;27.17;;;8.80;;
40621;SDS011;26324;52.040;11.528;2024-03-07T07:36:40;36.70;;;12.48;;
40621;SDS011;26324;52.040;11.528;2024-03-07T07:39:08;28.88;;;8.88;;
40621;SDS011;26324;52.040;11.528;2024-03-07T07:41:43;24.88;;;8.40;;
40621;SDS011;26324;52.040;11.528;2024-03-07T07:44:11;20.00;;;7.88;;
40621;SDS011;26324;52.040;11.528;2024-03-07T07:46:38;27.33;;;9.15;;
40621;SDS011;26324;52.040;11.528;2024-03-07T07:49:07;20.83;;;8.50;;
40621;SDS011;26324;52.040;11.528;2024-03-07T07:51:34;14.40;;;7.47;;
40621;SDS011;26324;52.040;11.528;2024-03-07T07:54:02;22.48;;;7.78;;
40621;SDS011;26324;52.040;11.528;2024-03-07T07:56:29;24.05;;;8.32;;
40621;SDS011;26324;52.040;11.528;2024-03-07T07:58:57;21.42;;;8.23;;
40621;SDS011;26324;52.040;11.528;2024-03-07T08:01:26;16.52;;;6.97;;
40621;SDS011;26324;52.040;11.528;2024-03-07T08:03:54;19.73;;;8.20;;
40621;SDS011;26324;52.040;11.528;2024-03-07T08:06:21;26.88;;;8.75;;
40621;SDS011;26324;52.040;11.528;2024-03-07T08:08:48;23.75;;;7.13;;
40621;SDS011;26324;52.040;11.528;2024-03-07T08:11:17;22.20;;;7.85;;
40621;SDS011;26324;52.040;11.528;2024-03-07T08:13:44;29.45;;;8.40;;
40621;SDS011;26324;52.040;11.528;2024-03-07T08:16:14;23.02;;;7.90;;
40621;SDS011;26324;52.040;11.528;2024-03-07T08:18:42;14.27;;;6.18;;
40621;SDS011;26324;52.040;11.528;2024-03-07T08:21:10;20.88;;;7.22;;
40621;SDS011;26324;52.040;11.528;2024-03-07T08:23:37;20.25;;;7.78;;
40621;SDS011;26324;52.040;11.528;2024-03-07T08:26:06;19.25;;;7.63;;
40621;SDS011;26324;52.040;11.528;2024-03-07T08:28:33;19.42;;;7.28;;
40621;SDS011;26324;52.040;11.528;2024-03-07T08:31:00;20.23;;;7.63;;
40621;SDS011;26324;52.040;11.528;2024-03-07T08:33:28;17.00;;;5.72;;
40621;SDS011;26324;52.040;11.528;2024-03-07T08:36:03;19.38;;;5.97;;
40621;SDS011;26324;52.040;11.528;2024-03-07T08:38:31;18.05;;;5.95;;
40621;SDS011;26324;52.040;11.528;2024-03-07T08:41:00;15.77;;;6.68;;
40621;SDS011;26324;52.040;11.528;2024-03-07T08:43:28;17.35;;;5.70;;
40621;SDS011;26324;52.040;11.528;2024-03-07T08:45:55;17.58;;;6.15;;
40621;SDS011;26324;52.040;11.528;2024-03-07T08:48:22;21.38;;;5.95;;
40621;SDS011;26324;52.040;11.528;2024-03-07T08:50:50;16.73;;;7.03;;
40621;SDS011;26324;52.040;11.528;2024-03-07T08:53:18;11.60;;;5.25;;
40621;SDS011;26324;52.040;11.528;2024-03-07T08:55:46;12.75;;;5.93;;
40621;SDS011;26324;52.040;11.528;2024-03-07T08:58:14;15.57;;;6.70;;
40621;SDS011;26324;52.040;11.528;2024-03-07T09:00:42;15.45;;;5.07;;
40621;SDS011;26324;52.040;11.528;2024-03-07T09:03:11;13.43;;;5.20;;
40621;SDS011;26324;52.040;11.528;2024-03-07T09:05:40;13.38;;;5.75;;
40621;SDS011;26324;52.040;11.528;2024-03-07T09:08:09;16.45;;;5.63;;
40621;SDS011;26324;52.040;11.528;2024-03-07T09:10:36;15.85;;;5.78;;
40621;SDS011;26324;52.040;11.528;2024-03-07T09:13:08;14.40;;;5.97;;
40621;SDS011;26324;52.040;11.528;2024-03-07T09:15:36;13.60;;;6.10;;
40621;SDS011;26324;52.040;11.528;2024-03-07T09:18:04;12.38;;;4.68;;
40621;SDS011;26324;52.040;11.528;2024-03-07T09:20:32;16.02;;;6.13;;
40621;SDS011;26324;52.040;11.528;2024-03-07T09:23:00;16.73;;;6.03;;
40621;SDS011;26324;52.040;11.528;2024-03-07T09:25:28;11.13;;;5.60;;
40621;SDS011;26324;52.040;11.528;2024-03-07T09:28:00;15.73;;;5.45;;
40621;SDS011;26324;52.040;11.528;2024-03-07T09:30:27;10.95;;;4.63;;
40621;SDS011;26324;52.040;11.528;2024-03-07T09:32:58;14.38;;;5.55;;
40621;SDS011;26324;52.040;11.528;2024-03-07T09:35:31;9.88;;;4.90;;
40621;SDS011;26324;52.040;11.528;2024-03-07T09:37:59;11.95;;;5.03;;
40621;SDS011;26324;52.040;11.528;2024-03-07T09:40:27;14.50;;;5.20;;
40621;SDS011;26324;52.040;11.528;2024-03-07T09:42:55;10.52;;;4.47;;
40621;SDS011;26324;52.040;11.528;2024-03-07T09:45:28;11.38;;;4.22;;
40621;SDS011;26324;52.040;11.528;2024-03-07T09:47:56;10.32;;;4.15;;
40621;SDS011;26324;52.040;11.528;2024-03-07T09:50:25;12.35;;;4.32;;
40621;SDS011;26324;52.040;11.528;2024-03-07T09:52:54;12.65;;;5.10;;
40621;SDS011;26324;52.040;11.528;2024-03-07T09:55:23;12.02;;;5.47;;
40621;SDS011;26324;52.040;11.528;2024-03-07T09:57:53;11.88;;;4.80;;
40621;SDS011;26324;52.040;11.528;2024-03-07T10:00:24;14.35;;;5.13;;
40621;SDS011;26324;52.040;11.528;2024-03-07T10:03:02;12.05;;;5.07;;
40621;SDS011;26324;52.040;11.528;2024-03-07T10:05:35;12.82;;;4.75;;
40621;SDS011;26324;52.040;11.528;2024-03-07T10:08:05;11.10;;;4.28;;
40621;SDS011;26324;52.040;11.528;2024-03-07T10:10:34;11.07;;;4.45;;
40621;SDS011;26324;52.040;11.528;2024-03-07T10:13:02;8.85;;;3.95;;
40621;SDS011;26324;52.040;11.528;2024-03-07T10:15:30;8.13;;;4.13;;
40621;SDS011;26324;52.040;11.528;2024-03-07T10:17:58;11.00;;;5.18;;
40621;SDS011;26324;52.040;11.528;2024-03-07T10:20:28;11.60;;;4.95;;
40621;SDS011;26324;52.040;11.528;2024-03-07T10:22:57;10.65;;;4.07;;
40621;SDS011;26324;52.040;11.528;2024-03-07T10:25:24;8.50;;;3.97;;
40621;SDS011;26324;52.040;11.528;2024-03-07T10:27:55;12.07;;;4.35;;
40621;SDS011;26324;52.040;11.528;2024-03-07T10:30:24;12.40;;;4.75;;
40621;SDS011;26324;52.040;11.528;2024-03-07T10:32:56;11.27;;;4.60;;
40621;SDS011;26324;52.040;11.528;2024-03-07T10:35:28;9.57;;;4.60;;
40621;SDS011;26324;52.040;11.528;2024-03-07T10:37:57;10.40;;;4.45;;
40621;SDS011;26324;52.040;11.528;2024-03-07T10:40:28;9.55;;;4.40;;
40621;SDS011;26324;52.040;11.528;2024-03-07T10:42:57;9.80;;;4.70;;
40621;SDS011;26324;52.040;11.528;2024-03-07T10:45:30;10.18;;;4.30;;
40621;SDS011;26324;52.040;11.528;2024-03-07T10:48:02;8.80;;;4.05;;
40621;SDS011;26324;52.040;11.528;2024-03-07T10:53:40;9.25;;;4.05;;
40621;SDS011;26324;52.040;11.528;2024-03-07T10:56:32;9.00;;;4.47;;
40621;SDS011;26324;52.040;11.528;2024-03-07T10:59:21;10.68;;;4.78;;
40621;SDS011;26324;52.040;11.528;2024-03-07T11:01:59;11.23;;;4.53;;
40621;SDS011;26324;52.040;11.528;2024-03-07T11:04:54;8.63;;;3.85;;
40621;SDS011;26324;52.040;11.528;2024-03-07T11:07:23;10.02;;;4.00;;
40621;SDS011;26324;52.040;11.528;2024-03-07T11:09:51;8.48;;;4.18;;
40621;SDS011;26324;52.040;11.528;2024-03-07T11:12:19;9.65;;;3.58;;
40621;SDS011;26324;52.040;11.528;2024-03-07T11:14:50;8.55;;;4.60;;
40621;SDS011;26324;52.040;11.528;2024-03-07T11:17:19;12.27;;;4.28;;
40621;SDS011;26324;52.040;11.528;2024-03-07T11:19:50;10.80;;;4.18;;
40621;SDS011;26324;52.040;11.528;2024-03-07T11:22:30;7.60;;;3.60;;
40621;SDS011;26324;52.040;11.528;2024-03-07T11:25:00;11.25;;;4.95;;
40621;SDS011;26324;52.040;11.528;2024-03-07T11:27:38;8.05;;;3.92;;
40621;SDS011;26324;52.040;11.528;2024-03-07T11:30:06;7.03;;;3.67;;
40621;SDS011;26324;52.040;11.528;2024-03-07T11:32:38;11.32;;;4.05;;
40621;SDS011;26324;52.040;11.528;2024-03-07T11:35:12;9.30;;;3.92;;
40621;SDS011;26324;52.040;11.528;2024-03-07T11:37:43;15.55;;;4.78;;
40621;SDS011;26324;52.040;11.528;2024-03-07T11:42:52;10.00;;;4.32;;
40621;SDS011;26324;52.040;11.528;2024-03-07T11:45:20;7.60;;;4.20;;
40621;SDS011;26324;52.040;11.528;2024-03-07T11:47:59;11.77;;;4.85;;
40621;SDS011;26324;52.040;11.528;2024-03-07T11:50:33;8.95;;;3.80;;
40621;SDS011;26324;52.040;11.528;2024-03-07T11:53:05;11.38;;;4.95;;
40621;SDS011;26324;52.040;11.528;2024-03-07T11:55:34;8.18;;;3.90;;
40621;SDS011;26324;52.040;11.528;2024-03-07T11:58:16;8.65;;;3.90;;
40621;SDS011;26324;52.040;11.528;2024-03-07T12:00:45;7.18;;;3.88;;
40621;SDS011;26324;52.040;11.528;2024-03-07T12:03:16;8.30;;;4.57;;
40621;SDS011;26324;52.040;11.528;2024-03-07T12:05:48;8.32;;;3.83;;
40621;SDS011;26324;52.040;11.528;2024-03-07T12:08:16;7.07;;;3.83;;
40621;SDS011;26324;52.040;11.528;2024-03-07T12:10:44;12.35;;;4.18;;
40621;SDS011;26324;52.040;11.528;2024-03-07T12:13:16;7.75;;;3.72;;
40621;SDS011;26324;52.040;11.528;2024-03-07T12:15:46;8.00;;;3.65;;
40621;SDS011;26324;52.040;11.528;2024-03-07T12:18:17;7.13;;;3.33;;
40621;SDS011;26324;52.040;11.528;2024-03-07T12:20:49;8.60;;;4.20;;
40621;SDS011;26324;52.040;11.528;2024-03-07T12:23:23;5.90;;;3.15;;
40621;SDS011;26324;52.040;11.528;2024-03-07T12:25:59;6.88;;;3.42;;
40621;SDS011;26324;52.040;11.528;2024-03-07T12:28:31;7.40;;;3.88;;
40621;SDS011;26324;52.040;11.528;2024-03-07T12:31:04;7.07;;;3.72;;
40621;SDS011;26324;52.040;11.528;2024-03-07T12:33:42;7.97;;;3.58;;
40621;SDS011;26324;52.040;11.528;2024-03-07T12:36:14;7.10;;;3.70;;
40621;SDS011;26324;52.040;11.528;2024-03-07T12:38:43;9.70;;;4.10;;
40621;SDS011;26324;52.040;11.528;2024-03-07T12:41:11;8.30;;;3.85;;
40621;SDS011;26324;52.040;11.528;2024-03-07T12:43:43;9.20;;;3.85;;
40621;SDS011;26324;52.040;11.528;2024-03-07T12:46:12;7.90;;;4.05;;
40621;SDS011;26324;52.040;11.528;2024-03-07T12:48:44;8.10;;;4.30;;
40621;SDS011;26324;52.040;11.528;2024-03-07T12:51:16;10.50;;;4.47;;
40621;SDS011;26324;52.040;11.528;2024-03-07T12:53:47;9.70;;;4.32;;
40621;SDS011;26324;52.040;11.528;2024-03-07T12:56:15;10.98;;;5.30;;
40621;SDS011;26324;52.040;11.528;2024-03-07T12:58:46;7.25;;;4.15;;
40621;SDS011;26324;52.040;11.528;2024-03-07T13:01:15;9.60;;;4.70;;
40621;SDS011;26324;52.040;11.528;2024-03-07T13:03:45;11.15;;;4.82;;
40621;SDS011;26324;52.040;11.528;2024-03-07T13:06:14;8.73;;;4.13;;
40621;SDS011;26324;52.040;11.528;2024-03-07T13:08:42;9.43;;;4.53;;
40621;SDS011;26324;52.040;11.528;2024-03-07T13:11:10;10.80;;;4.90;;
40621;SDS011;26324;52.040;11.528;2024-03-07T13:13:38;11.25;;;4.97;;
40621;SDS011;26324;52.040;11.528;2024-03-07T13:16:06;10.82;;;4.00;;
40621;SDS011;26324;52.040;11.528;2024-03-07T13:18:33;10.85;;;4.53;;
40621;SDS011;26324;52.040;11.528;2024-03-07T13:21:02;7.97;;;4.72;;
40621;SDS011;26324;52.040;11.528;2024-03-07T13:23:35;7.95;;;4.03;;
40621;SDS011;26324;52.040;11.528;2024-03-07T13:26:08;9.65;;;4.38;;
40621;SDS011;26324;52.040;11.528;2024-03-07T13:28:45;8.60;;;4.20;;
40621;SDS011;26324;52.040;11.528;2024-03-07T13:31:16;9.20;;;5.20;;
40621;SDS011;26324;52.040;11.528;2024-03-07T13:33:46;12.27;;;4.70;;
40621;SDS011;26324;52.040;11.528;2024-03-07T13:36:19;8.50;;;4.93;;
40621;SDS011;26324;52.040;11.528;2024-03-07T13:38:54;8.27;;;4.03;;
40621;SDS011;26324;52.040;11.528;2024-03-07T13:41:26;8.30;;;4.18;;
40621;SDS011;26324;52.040;11.528;2024-03-07T13:43:57;9.32;;;5.13;;
40621;SDS011;26324;52.040;11.528;2024-03-07T13:46:28;7.53;;;4.55;;
40621;SDS011;26324;52.040;11.528;2024-03-07T13:49:00;8.10;;;4.38;;
40621;SDS011;26324;52.040;11.528;2024-03-07T13:51:41;8.70;;;4.45;;
40621;SDS011;26324;52.040;11.528;2024-03-07T13:54:32;10.45;;;5.40;;
40621;SDS011;26324;52.040;11.528;2024-03-07T13:57:20;9.93;;;5.32;;
40621;SDS011;26324;52.040;11.528;2024-03-07T14:00:40;9.32;;;5.00;;
40621;SDS011;26324;52.040;11.528;2024-03-07T14:06:16;9.20;;;4.90;;
40621;SDS011;26324;52.040;11.528;2024-03-07T14:32:04;8.88;;;5.22;;
40621;SDS011;26324;52.040;11.528;2024-03-07T14:35:17;13.20;;;5.78;;
40621;SDS011;26324;52.040;11.528;2024-03-07T14:37:46;8.45;;;5.35;;
40621;SDS011;26324;52.040;11.528;2024-03-07T14:40:33;9.98;;;5.78;;
40621;SDS011;26324;52.040;11.528;2024-03-07T14:43:04;8.07;;;4.78;;
40621;SDS011;26324;52.040;11.528;2024-03-07T14:45:38;12.43;;;5.72;;
40621;SDS011;26324;52.040;11.528;2024-03-07T14:50:46;10.55;;;5.18;;
40621;SDS011;26324;52.040;11.528;2024-03-07T14:53:19;9.43;;;5.43;;
40621;SDS011;26324;52.040;11.528;2024-03-07T14:55:52;9.20;;;5.53;;
40621;SDS011;26324;52.040;11.528;2024-03-07T14:58:27;9.93;;;5.38;;
40621;SDS011;26324;52.040;11.528;2024-03-07T15:00:59;6.45;;;4.38;;
40621;SDS011;26324;52.040;11.528;2024-03-07T15:03:32;8.07;;;6.00;;
40621;SDS011;26324;52.040;11.528;2024-03-07T15:06:05;7.28;;;4.70;;
40621;SDS011;26324;52.040;11.528;2024-03-07T15:08:40;8.35;;;5.00;;
40621;SDS011;26324;52.040;11.528;2024-03-07T15:11:15;10.85;;;5.60;;
40621;SDS011;26324;52.040;11.528;2024-03-07T15:14:04;11.00;;;5.38;;
40621;SDS011;26324;52.040;11.528;2024-03-07T15:16:44;8.85;;;5.25;;
40621;SDS011;26324;52.040;11.528;2024-03-07T15:19:14;9.25;;;5.47;;
40621;SDS011;26324;52.040;11.528;2024-03-07T15:21:46;10.10;;;5.18;;
40621;SDS011;26324;52.040;11.528;2024-03-07T15:24:22;7.72;;;4.80;;
40621;SDS011;26324;52.040;11.528;2024-03-07T15:26:54;9.07;;;4.70;;